createdAt,value
2017-09-25T00:00:07.046Z,14.40
2017-09-25T00:02:33.365Z,14.50
2017-09-25T00:04:59.592Z,14.50
2017-09-25T00:07:25.809Z,14.50
2017-09-25T00:09:52.074Z,14.50
2017-09-25T00:12:18.310Z,14.50
2017-09-25T00:14:44.530Z,14.50
2017-09-25T00:17:11.062Z,14.60
2017-09-25T00:19:37.421Z,14.60
2017-09-25T00:22:03.653Z,14.50
2017-09-25T00:24:29.909Z,14.50
2017-09-25T00:26:56.900Z,14.60
2017-09-25T00:29:23.146Z,14.60
2017-09-25T00:31:49.446Z,14.60
2017-09-25T00:34:15.693Z,14.60
2017-09-25T00:36:41.932Z,14.60
2017-09-25T00:39:08.181Z,14.60
2017-09-25T00:41:35.142Z,14.60
2017-09-25T00:44:02.142Z,14.60
2017-09-25T00:46:28.401Z,14.60
2017-09-25T00:48:55.392Z,14.50
2017-09-25T00:51:21.701Z,14.50
2017-09-25T00:53:57.088Z,14.50
2017-09-25T00:56:23.345Z,14.50
2017-09-25T00:58:50.358Z,14.50
2017-09-25T01:01:16.620Z,14.50
2017-09-25T01:03:52.909Z,14.50
2017-09-25T01:06:24.909Z,14.50
2017-09-25T01:08:51.225Z,14.50
2017-09-25T01:11:17.509Z,14.50
2017-09-25T01:13:44.489Z,14.40
2017-09-25T01:16:10.719Z,14.40
2017-09-25T01:18:36.997Z,14.40
2017-09-25T01:21:03.251Z,14.40
2017-09-25T01:23:30.212Z,14.40
2017-09-25T01:25:56.450Z,14.40
2017-09-25T01:28:22.676Z,14.40
2017-09-25T01:30:49.136Z,14.40
2017-09-25T01:33:15.348Z,14.40
2017-09-25T01:35:41.567Z,14.40
2017-09-25T01:38:08.033Z,14.30
2017-09-25T01:40:34.991Z,14.40
2017-09-25T01:43:01.224Z,14.40
2017-09-25T01:45:27.473Z,14.30
2017-09-25T01:47:54.444Z,14.30
2017-09-25T01:50:20.665Z,14.30
2017-09-25T01:52:46.878Z,14.30
2017-09-25T01:55:13.844Z,14.30
2017-09-25T01:57:40.228Z,14.40
2017-09-25T02:00:06.461Z,14.30
2017-09-25T02:02:32.692Z,14.30
2017-09-25T02:04:59.301Z,14.30
2017-09-25T02:07:25.524Z,14.30
2017-09-25T02:09:51.766Z,14.30
2017-09-25T02:12:18.033Z,14.30
2017-09-25T02:14:45.004Z,14.30
2017-09-25T02:17:11.228Z,14.30
2017-09-25T02:19:37.457Z,14.30
2017-09-25T02:22:03.684Z,14.30
2017-09-25T02:24:30.244Z,14.30
2017-09-25T02:26:56.480Z,14.30
2017-09-25T02:29:22.704Z,14.30
2017-09-25T02:31:48.944Z,14.30
2017-09-25T02:34:15.205Z,14.30
2017-09-25T02:36:42.197Z,14.30
2017-09-25T02:39:08.477Z,14.30
2017-09-25T02:41:35.448Z,14.30
2017-09-25T02:44:01.713Z,14.30
2017-09-25T02:46:28.286Z,14.30
2017-09-25T02:48:55.248Z,14.20
2017-09-25T02:51:21.497Z,14.20
2017-09-25T02:53:48.058Z,14.30
2017-09-25T02:56:14.313Z,14.30
2017-09-25T02:58:41.562Z,14.30
2017-09-25T03:01:07.802Z,14.30
2017-09-25T03:03:34.760Z,14.30
2017-09-25T03:06:01.740Z,14.30
2017-09-25T03:08:27.986Z,14.30
2017-09-25T03:10:54.209Z,14.30
2017-09-25T03:13:20.438Z,14.30
2017-09-25T03:15:46.689Z,14.30
2017-09-25T03:18:12.925Z,14.30
2017-09-25T03:20:39.147Z,14.30
2017-09-25T03:23:05.405Z,14.30
2017-09-25T03:25:31.634Z,14.30
2017-09-25T03:27:58.109Z,14.30
2017-09-25T03:30:24.335Z,14.30
2017-09-25T03:32:50.564Z,14.30
2017-09-25T03:35:16.812Z,14.30
2017-09-25T03:37:43.031Z,14.30
2017-09-25T03:40:09.996Z,14.30
2017-09-25T03:42:36.303Z,14.30
2017-09-25T03:45:02.622Z,14.30
2017-09-25T03:47:28.845Z,14.30
2017-09-25T03:49:55.089Z,14.40
2017-09-25T03:52:21.299Z,14.30
2017-09-25T03:54:47.582Z,14.30
2017-09-25T03:57:14.579Z,14.40
2017-09-25T03:59:40.794Z,14.40
2017-09-25T04:02:07.008Z,14.40
2017-09-25T04:04:34.391Z,14.40
2017-09-25T04:07:01.450Z,14.50
2017-09-25T04:09:27.727Z,14.50
2017-09-25T04:11:55.933Z,14.40
2017-09-25T04:14:23.108Z,14.40
2017-09-25T04:16:50.263Z,14.40
2017-09-25T04:19:16.745Z,14.40
2017-09-25T04:21:42.966Z,14.40
2017-09-25T04:24:10.067Z,14.40
2017-09-25T04:26:36.699Z,14.40
2017-09-25T04:29:02.921Z,14.40
2017-09-25T04:31:29.144Z,14.40
2017-09-25T04:33:55.385Z,14.40
2017-09-25T04:36:22.365Z,14.50
2017-09-25T04:38:49.339Z,14.50
2017-09-25T04:41:15.572Z,14.50
2017-09-25T04:43:41.794Z,14.50
2017-09-25T04:46:08.061Z,14.50
2017-09-25T04:48:34.284Z,14.50
2017-09-25T04:51:00.509Z,14.50
2017-09-25T04:53:26.946Z,14.50
2017-09-25T04:55:53.172Z,14.50
2017-09-25T04:58:19.385Z,14.50
2017-09-25T05:00:45.640Z,14.50
2017-09-25T05:03:11.884Z,14.60
2017-09-25T05:05:38.111Z,14.60
2017-09-25T05:08:04.349Z,14.50
2017-09-25T05:10:31.314Z,14.50
2017-09-25T05:12:57.564Z,14.50
2017-09-25T05:15:23.797Z,14.50
2017-09-25T05:17:50.017Z,14.50
2017-09-25T05:20:16.257Z,14.50
2017-09-25T05:22:42.496Z,14.50
2017-09-25T05:25:08.753Z,14.50
2017-09-25T05:27:34.989Z,14.50
2017-09-25T05:30:01.975Z,14.50
2017-09-25T05:32:28.200Z,14.50
2017-09-25T05:34:54.669Z,14.60
2017-09-25T05:37:20.922Z,14.60
2017-09-25T05:39:47.156Z,14.60
2017-09-25T05:42:14.158Z,14.50
2017-09-25T05:44:40.381Z,14.60
2017-09-25T05:47:06.665Z,14.60
2017-09-25T05:49:33.664Z,14.60
2017-09-25T05:51:59.897Z,14.60
2017-09-25T05:54:26.120Z,14.60
2017-09-25T05:56:52.458Z,14.60
2017-09-25T05:59:18.695Z,14.70
2017-09-25T06:01:44.933Z,14.70
2017-09-25T06:04:12.484Z,14.70
2017-09-25T06:06:39.795Z,14.70
2017-09-25T06:09:06.018Z,14.70
2017-09-25T06:11:32.321Z,14.70
2017-09-25T06:13:59.305Z,14.70
2017-09-25T06:16:25.713Z,14.70
2017-09-25T06:18:52.398Z,14.70
2017-09-25T06:21:18.651Z,14.70
2017-09-25T06:23:45.649Z,14.80
2017-09-25T06:26:11.889Z,14.80
2017-09-25T06:28:38.501Z,14.80
2017-09-25T06:31:04.717Z,14.80
2017-09-25T06:33:31.733Z,14.90
2017-09-25T06:35:57.972Z,14.90
2017-09-25T06:38:24.957Z,14.90
2017-09-25T06:40:51.296Z,14.90
2017-09-25T06:43:19.772Z,14.90
2017-09-25T06:45:47.499Z,14.90
2017-09-25T06:48:15.818Z,14.90
2017-09-25T06:50:42.323Z,15.00
2017-09-25T06:53:09.569Z,15.00
2017-09-25T06:55:37.258Z,15.00
2017-09-25T06:58:04.081Z,15.00
2017-09-25T07:00:31.059Z,15.00
2017-09-25T07:02:57.408Z,15.00
2017-09-25T07:05:23.909Z,15.00
2017-09-25T07:07:50.180Z,15.00
2017-09-25T07:10:16.887Z,15.00
2017-09-25T07:12:43.133Z,15.00
2017-09-25T07:15:09.385Z,15.10
2017-09-25T07:17:35.957Z,15.10
2017-09-25T07:20:02.317Z,15.10
2017-09-25T07:22:28.631Z,15.10
2017-09-25T07:24:54.898Z,15.10
2017-09-25T07:27:21.855Z,15.10
2017-09-25T07:29:48.911Z,15.10
2017-09-25T07:32:17.143Z,15.10
2017-09-25T07:34:43.644Z,15.10
2017-09-25T07:37:10.220Z,15.10
2017-09-25T07:39:39.289Z,15.10
2017-09-25T07:42:06.185Z,15.10
2017-09-25T07:44:33.494Z,15.10
2017-09-25T07:46:59.733Z,15.10
2017-09-25T07:49:25.977Z,15.20
2017-09-25T07:51:53.005Z,15.20
2017-09-25T07:54:20.613Z,15.20
2017-09-25T07:56:47.617Z,15.30
2017-09-25T07:59:13.978Z,15.30
2017-09-25T08:01:40.230Z,15.40
2017-09-25T08:04:07.242Z,15.50
2017-09-25T08:06:33.469Z,15.50
2017-09-25T08:09:00.018Z,15.50
2017-09-25T08:11:26.263Z,15.50
2017-09-25T08:13:53.225Z,15.50
2017-09-25T08:16:19.463Z,15.50
2017-09-25T08:18:46.036Z,15.60
2017-09-25T08:21:12.285Z,15.60
2017-09-25T08:23:38.530Z,15.60
2017-09-25T08:26:05.509Z,15.60
2017-09-25T08:28:31.737Z,15.60
2017-09-25T08:30:58.499Z,15.60
2017-09-25T08:33:24.717Z,15.80
2017-09-25T08:35:50.946Z,15.90
2017-09-25T08:38:17.192Z,16.00
2017-09-25T08:40:43.416Z,16.10
2017-09-25T08:43:09.633Z,16.20
2017-09-25T08:45:35.872Z,16.20
2017-09-25T08:48:02.101Z,16.30
2017-09-25T08:50:28.327Z,16.30
2017-09-25T08:52:54.578Z,16.20
2017-09-25T08:55:20.806Z,16.30
2017-09-25T08:57:47.027Z,16.40
2017-09-25T09:00:13.328Z,16.50
2017-09-25T09:02:39.560Z,16.50
2017-09-25T09:05:05.781Z,16.60
2017-09-25T09:07:32.335Z,16.60
2017-09-25T09:09:58.564Z,16.60
2017-09-25T09:12:24.790Z,16.70
2017-09-25T09:14:51.066Z,16.60
2017-09-25T09:17:18.046Z,16.50
2017-09-25T09:19:44.633Z,16.50
2017-09-25T09:22:11.597Z,16.60
2017-09-25T09:24:38.552Z,16.60
2017-09-25T09:27:04.796Z,16.60
2017-09-25T09:29:31.115Z,16.60
2017-09-25T09:31:57.373Z,16.60
2017-09-25T09:34:23.602Z,16.70
2017-09-25T09:36:49.836Z,16.70
2017-09-25T09:39:16.173Z,16.70
2017-09-25T09:41:42.476Z,16.70
2017-09-25T09:44:08.709Z,16.80
2017-09-25T09:46:35.265Z,17.00
2017-09-25T09:49:01.490Z,17.10
2017-09-25T09:51:27.727Z,17.10
2017-09-25T09:53:53.977Z,17.10
2017-09-25T09:56:20.941Z,17.20
2017-09-25T09:58:47.170Z,17.20
2017-09-25T10:01:13.396Z,17.20
2017-09-25T10:03:40.385Z,17.10
2017-09-25T10:06:06.926Z,17.10
2017-09-25T10:08:33.394Z,17.20
2017-09-25T10:11:00.977Z,17.30
2017-09-25T10:13:27.242Z,17.30
2017-09-25T10:15:53.462Z,17.40
2017-09-25T10:18:19.695Z,17.60
2017-09-25T10:20:45.954Z,17.70
2017-09-25T10:23:12.222Z,17.60
2017-09-25T10:25:38.638Z,17.70
2017-09-25T10:28:05.741Z,18.10
2017-09-25T10:30:31.981Z,18.10
2017-09-25T10:32:58.226Z,18.30
2017-09-25T10:35:24.499Z,18.40
2017-09-25T10:37:50.734Z,18.40
2017-09-25T10:40:16.970Z,18.40
2017-09-25T10:42:43.216Z,18.30
2017-09-25T10:45:09.451Z,18.30
2017-09-25T10:47:35.732Z,18.30
2017-09-25T10:50:02.210Z,18.20
2017-09-25T10:52:28.429Z,18.30
2017-09-25T10:54:54.922Z,18.50
2017-09-25T10:57:21.220Z,18.60
2017-09-25T10:59:48.209Z,18.40
2017-09-25T11:02:14.445Z,18.40
2017-09-25T11:04:40.700Z,18.40
2017-09-25T11:07:06.930Z,18.40
2017-09-25T11:09:33.172Z,18.40
2017-09-25T11:11:59.498Z,18.40
2017-09-25T11:14:25.739Z,18.30
2017-09-25T11:16:52.769Z,18.00
2017-09-25T11:19:19.009Z,18.00
2017-09-25T11:21:45.857Z,18.00
2017-09-25T11:24:12.336Z,17.90
2017-09-25T11:26:38.554Z,17.90
2017-09-25T11:29:04.765Z,17.80
2017-09-25T11:31:32.108Z,17.60
2017-09-25T11:33:59.093Z,17.60
2017-09-25T11:36:26.133Z,17.70
2017-09-25T11:38:52.598Z,17.70
2017-09-25T11:41:18.836Z,17.90
2017-09-25T11:43:45.062Z,18.00
2017-09-25T11:46:11.589Z,18.00
2017-09-25T11:48:38.795Z,18.10
2017-09-25T11:51:05.054Z,18.20
2017-09-25T11:53:31.309Z,18.40
2017-09-25T11:55:57.564Z,18.40
2017-09-25T11:58:24.533Z,18.60
2017-09-25T12:00:50.838Z,18.60
2017-09-25T12:03:17.835Z,18.60
2017-09-25T12:05:44.072Z,18.60
2017-09-25T12:08:10.330Z,18.90
2017-09-25T12:10:36.565Z,19.10
2017-09-25T12:13:03.805Z,19.30
2017-09-25T12:15:30.092Z,19.20
2017-09-25T12:17:56.626Z,19.20
2017-09-25T12:20:22.874Z,19.20
2017-09-25T12:22:49.478Z,19.20
2017-09-25T12:25:15.774Z,19.00
2017-09-25T12:27:42.874Z,19.00
2017-09-25T12:30:09.149Z,18.90
2017-09-25T12:32:36.190Z,19.30
2017-09-25T12:35:02.827Z,19.30
2017-09-25T12:37:29.837Z,19.80
2017-09-25T12:39:56.107Z,19.80
2017-09-25T12:42:23.222Z,20.10
2017-09-25T12:44:49.521Z,20.10
2017-09-25T12:47:15.787Z,20.50
2017-09-25T12:49:42.091Z,20.80
2017-09-25T12:52:08.374Z,21.20
2017-09-25T12:54:35.419Z,21.80
2017-09-25T12:57:02.511Z,21.90
2017-09-25T12:59:28.786Z,21.80
2017-09-25T13:01:55.095Z,21.60
2017-09-25T13:04:21.386Z,21.20
2017-09-25T13:06:47.679Z,20.70
2017-09-25T13:09:13.971Z,20.30
2017-09-25T13:11:40.363Z,20.00
2017-09-25T13:14:07.481Z,19.60
2017-09-25T13:16:33.770Z,19.60
2017-09-25T13:19:00.071Z,20.00
2017-09-25T13:21:27.091Z,22.00
2017-09-25T13:23:53.367Z,21.90
2017-09-25T13:26:19.655Z,22.00
2017-09-25T13:28:45.920Z,21.50
2017-09-25T13:31:12.200Z,20.80
2017-09-25T13:33:38.627Z,20.30
2017-09-25T13:36:05.002Z,20.00
2017-09-25T13:38:31.394Z,19.60
2017-09-25T13:40:59.344Z,19.30
2017-09-25T13:43:25.662Z,19.30
2017-09-25T13:45:51.944Z,19.00
2017-09-25T13:48:18.986Z,18.80
2017-09-25T13:50:45.257Z,18.80
2017-09-25T13:53:11.590Z,18.60
2017-09-25T13:55:37.923Z,18.40
2017-09-25T13:58:04.190Z,18.30
2017-09-25T14:03:03.210Z,17.80
2017-09-25T14:05:30.299Z,17.70
2017-09-25T14:07:56.567Z,17.70
2017-09-25T14:10:22.865Z,17.60
2017-09-25T14:12:49.146Z,17.50
2017-09-25T14:15:15.635Z,17.40
2017-09-25T14:17:41.907Z,17.40
2017-09-25T14:20:08.235Z,17.30
2017-09-25T14:22:34.528Z,17.40
2017-09-25T14:25:00.854Z,17.30
2017-09-25T14:27:27.200Z,17.50
2017-09-25T14:29:53.538Z,17.50
2017-09-25T14:32:19.820Z,17.60
2017-09-25T14:34:46.540Z,17.60
2017-09-25T14:37:13.556Z,17.60
2017-09-25T14:39:39.841Z,17.60
2017-09-25T14:42:06.161Z,17.60
2017-09-25T14:44:33.181Z,17.70
2017-09-25T14:46:59.448Z,17.70
2017-09-25T14:49:25.738Z,17.70
2017-09-25T14:51:51.989Z,17.60
2017-09-25T14:54:18.969Z,17.40
2017-09-25T14:56:45.279Z,17.40
2017-09-25T14:59:11.732Z,17.40
2017-09-25T15:01:38.247Z,17.30
2017-09-25T15:04:04.832Z,17.20
2017-09-25T15:06:31.105Z,17.20
2017-09-25T15:08:57.410Z,17.10
2017-09-25T15:11:24.814Z,17.10
2017-09-25T15:13:51.143Z,17.10
2017-09-25T15:16:17.426Z,17.20
2017-09-25T15:18:43.695Z,17.20
2017-09-25T15:21:09.951Z,17.20
2017-09-25T15:23:36.224Z,17.30
2017-09-25T15:26:03.372Z,17.40
2017-09-25T15:28:30.342Z,17.40
2017-09-25T15:30:56.683Z,17.40
2017-09-25T15:33:23.157Z,17.50
2017-09-25T15:35:49.392Z,17.50
2017-09-25T15:38:15.649Z,17.50
2017-09-25T15:40:42.616Z,17.50
2017-09-25T15:43:08.844Z,17.50
2017-09-25T15:45:35.123Z,17.50
2017-09-25T15:48:01.366Z,17.50
2017-09-25T15:50:28.347Z,17.30
2017-09-25T15:52:54.689Z,17.30
2017-09-25T15:55:20.927Z,17.20
2017-09-25T15:57:47.149Z,17.00
2017-09-25T16:00:13.820Z,16.90
2017-09-25T16:02:40.382Z,16.90
2017-09-25T16:05:07.441Z,16.80
2017-09-25T16:07:34.720Z,16.70
2017-09-25T16:10:01.068Z,16.70
2017-09-25T16:12:27.403Z,16.70
2017-09-25T16:14:54.033Z,16.70
2017-09-25T16:17:20.280Z,16.60
2017-09-25T16:19:47.645Z,16.60
2017-09-25T16:22:14.148Z,16.70
2017-09-25T16:24:40.382Z,16.60
2017-09-25T16:27:06.670Z,16.60
2017-09-25T16:29:33.017Z,16.60
2017-09-25T16:31:59.273Z,16.60
2017-09-25T16:34:25.914Z,16.50
2017-09-25T16:36:52.140Z,16.50
2017-09-25T16:39:18.369Z,16.60
2017-09-25T16:41:44.621Z,16.60
2017-09-25T16:44:11.590Z,16.60
2017-09-25T16:46:38.041Z,16.60
2017-09-25T16:49:04.554Z,16.60
2017-09-25T16:51:31.853Z,16.40
2017-09-25T16:53:58.915Z,16.30
2017-09-25T16:56:25.165Z,16.30
2017-09-25T16:58:52.137Z,16.20
2017-09-25T17:01:18.721Z,16.30
2017-09-25T17:03:45.232Z,16.20
2017-09-25T17:06:11.828Z,16.20
2017-09-25T17:08:39.229Z,16.20
2017-09-25T17:11:05.493Z,16.20
2017-09-25T17:13:31.731Z,16.20
2017-09-25T17:15:58.117Z,16.10
2017-09-25T17:18:24.690Z,16.10
2017-09-25T17:20:51.832Z,16.00
2017-09-25T17:23:18.065Z,16.00
2017-09-25T17:25:44.730Z,15.90
2017-09-25T17:28:11.034Z,15.80
2017-09-25T17:30:37.261Z,15.70
2017-09-25T17:33:03.476Z,15.70
2017-09-25T17:35:29.769Z,15.60
2017-09-25T17:37:56.140Z,15.70
2017-09-25T17:40:22.417Z,15.80
2017-09-25T17:42:48.642Z,15.90
2017-09-25T17:45:15.008Z,15.90
2017-09-25T17:47:41.457Z,15.90
2017-09-25T17:50:08.059Z,15.90
2017-09-25T17:52:34.296Z,15.90
2017-09-25T17:55:00.749Z,15.90
2017-09-25T17:57:26.976Z,16.00
2017-09-25T17:59:54.137Z,15.90
2017-09-25T18:02:20.658Z,15.90
2017-09-25T18:04:46.929Z,16.00
2017-09-25T18:07:13.888Z,16.00
2017-09-25T18:09:40.950Z,15.90
2017-09-25T18:12:07.190Z,15.90
2017-09-25T18:14:33.641Z,15.90
2017-09-25T18:16:59.865Z,15.90
2017-09-25T18:19:26.090Z,15.90
2017-09-25T18:21:52.309Z,15.90
2017-09-25T18:24:18.546Z,15.90
2017-09-25T18:26:44.814Z,15.90
2017-09-25T18:29:11.789Z,15.90
2017-09-25T18:31:38.015Z,15.90
2017-09-25T18:34:04.289Z,15.90
2017-09-25T18:36:30.518Z,15.80
2017-09-25T18:38:56.788Z,15.80
2017-09-25T18:41:23.992Z,15.70
2017-09-25T18:43:50.279Z,15.70
2017-09-25T18:46:16.510Z,15.60
2017-09-25T18:48:42.812Z,15.70
2017-09-25T18:51:09.797Z,15.70
2017-09-25T18:53:36.088Z,15.70
2017-09-25T18:56:03.119Z,15.70
2017-09-25T18:58:29.408Z,15.70
2017-09-25T19:00:55.711Z,15.70
2017-09-25T19:03:22.355Z,15.70
2017-09-25T19:05:48.658Z,15.70
2017-09-25T19:08:15.647Z,15.60
2017-09-25T19:10:42.009Z,15.60
2017-09-25T19:13:08.338Z,15.60
2017-09-25T19:15:34.656Z,15.50
2017-09-25T19:18:00.970Z,15.50
2017-09-25T19:20:27.312Z,15.50
2017-09-25T19:22:53.639Z,15.40
2017-09-25T19:25:19.958Z,15.40
2017-09-25T19:27:46.520Z,15.40
2017-09-25T19:30:12.823Z,15.40
2017-09-25T19:32:39.122Z,15.40
2017-09-25T19:35:06.201Z,15.30
2017-09-25T19:37:32.516Z,15.20
2017-09-25T19:39:58.773Z,15.20
2017-09-25T19:42:25.486Z,15.20
2017-09-25T19:44:51.814Z,15.10
2017-09-25T19:47:18.056Z,15.10
2017-09-25T19:49:44.570Z,15.10
2017-09-25T19:52:10.909Z,15.10
2017-09-25T19:54:38.058Z,15.10
2017-09-25T19:57:05.282Z,15.10
2017-09-25T19:59:32.269Z,15.10
2017-09-25T20:01:58.629Z,15.10
2017-09-25T20:04:24.881Z,15.10
2017-09-25T20:06:51.121Z,15.10
2017-09-25T20:09:18.442Z,14.90
2017-09-25T20:11:44.687Z,14.90
2017-09-25T20:17:20.645Z,14.70
2017-09-25T20:19:46.981Z,14.80
2017-09-25T20:22:13.221Z,14.70
2017-09-25T20:24:39.458Z,14.70
2017-09-25T20:27:06.463Z,14.70
2017-09-25T20:29:32.798Z,14.70
2017-09-25T20:31:59.033Z,14.70
2017-09-25T20:34:25.261Z,14.70
2017-09-25T20:36:51.549Z,14.70
2017-09-25T20:39:17.820Z,14.70
2017-09-25T20:41:44.078Z,14.70
2017-09-25T20:44:11.120Z,14.70
2017-09-25T20:46:37.346Z,14.70
2017-09-25T20:49:03.589Z,14.70
2017-09-25T20:51:30.840Z,14.80
2017-09-25T20:53:57.810Z,14.70
2017-09-25T20:56:24.518Z,14.60
2017-09-25T20:58:50.755Z,14.70
2017-09-25T21:01:17.924Z,14.50
2017-09-25T21:03:44.318Z,14.50
2017-09-25T21:06:10.549Z,14.50
2017-09-25T21:08:36.777Z,14.50
2017-09-25T21:11:03.045Z,14.40
2017-09-25T21:13:29.293Z,14.40
2017-09-25T21:15:55.548Z,14.40
2017-09-25T21:18:21.854Z,14.40
2017-09-25T21:20:48.091Z,14.30
2017-09-25T21:23:14.554Z,14.40
2017-09-25T21:25:40.833Z,14.40
2017-09-25T21:28:07.094Z,14.40
2017-09-25T21:30:33.324Z,14.30
2017-09-25T21:33:00.320Z,14.30
2017-09-25T21:35:26.935Z,14.30
2017-09-25T21:37:53.911Z,14.30
2017-09-25T21:40:20.153Z,14.30
2017-09-25T21:42:46.402Z,14.30
2017-09-25T21:45:12.730Z,14.30
2017-09-25T21:47:39.034Z,14.30
2017-09-25T21:50:05.483Z,14.30
2017-09-25T21:52:31.924Z,14.30
2017-09-25T21:54:58.421Z,14.30
2017-09-25T21:57:24.845Z,14.30
2017-09-25T21:59:51.922Z,14.50
2017-09-25T22:02:19.152Z,14.40
2017-09-25T22:04:45.504Z,14.40
2017-09-25T22:07:12.062Z,14.40
2017-09-25T22:09:39.026Z,14.40
2017-09-25T22:12:05.287Z,14.30
2017-09-25T22:14:32.690Z,14.30
2017-09-25T22:16:58.913Z,14.20
2017-09-25T22:19:25.331Z,14.30
2017-09-25T22:21:52.486Z,14.40
2017-09-25T22:24:18.732Z,14.30
2017-09-25T22:26:44.965Z,14.40
2017-09-25T22:29:11.213Z,14.40
2017-09-25T22:31:37.725Z,14.40
2017-09-25T22:34:04.001Z,14.40
2017-09-25T22:36:31.008Z,14.40
2017-09-25T22:38:57.268Z,14.40
2017-09-25T22:41:24.264Z,14.60
2017-09-25T22:43:56.705Z,14.60
2017-09-25T22:46:22.973Z,14.50
2017-09-25T22:48:49.235Z,14.40
2017-09-25T22:51:16.226Z,14.30
2017-09-25T22:53:42.453Z,14.30
2017-09-25T22:56:08.756Z,14.20
2017-09-25T22:58:35.727Z,14.10
2017-09-25T23:01:01.981Z,14.10
2017-09-25T23:03:29.858Z,14.10
2017-09-25T23:05:56.114Z,14.10
2017-09-25T23:08:23.095Z,14.10
2017-09-25T23:10:49.468Z,14.00
2017-09-25T23:13:15.705Z,14.00
2017-09-25T23:15:41.929Z,14.00
2017-09-25T23:18:08.549Z,14.10
2017-09-25T23:20:34.781Z,14.10
2017-09-25T23:23:01.022Z,14.10
2017-09-25T23:25:27.290Z,14.10
2017-09-25T23:27:53.582Z,14.10
2017-09-25T23:30:21.845Z,14.10
2017-09-25T23:32:48.133Z,14.10
2017-09-25T23:35:14.412Z,14.10
2017-09-25T23:37:40.646Z,14.10
2017-09-25T23:40:06.868Z,14.00
2017-09-25T23:42:33.484Z,14.00
2017-09-25T23:44:59.708Z,14.00
2017-09-25T23:47:25.937Z,14.00
2017-09-25T23:49:52.173Z,13.90
2017-09-25T23:52:18.394Z,14.00
2017-09-25T23:54:45.363Z,13.90
2017-09-25T23:57:11.605Z,13.90
2017-09-25T23:59:38.561Z,13.90
